createdAt,value
2019-03-29T00:00:32.079Z,86.07
2019-03-29T00:02:10.351Z,89.57
2019-03-29T00:03:46.775Z,90.97
2019-03-29T00:05:23.095Z,78.10
2019-03-29T00:06:59.601Z,83.43
2019-03-29T00:08:36.095Z,92.40
2019-03-29T00:10:12.725Z,97.30
2019-03-29T00:11:49.044Z,94.60
2019-03-29T00:13:25.400Z,100.00
2019-03-29T00:15:01.889Z,94.30
2019-03-29T00:16:38.118Z,92.53
2019-03-29T00:18:14.353Z,94.77
2019-03-29T00:19:50.291Z,116.23
2019-03-29T00:21:26.560Z,131.93
2019-03-29T00:23:03.076Z,113.67
2019-03-29T00:24:39.391Z,77.67
2019-03-29T00:26:19.431Z,81.83
2019-03-29T00:27:55.732Z,79.83
2019-03-29T00:29:32.147Z,81.93
2019-03-29T00:31:08.532Z,90.90
2019-03-29T00:32:45.983Z,82.73
2019-03-29T00:34:22.416Z,79.57
2019-03-29T00:35:59.231Z,71.90
2019-03-29T00:37:36.130Z,66.37
2019-03-29T00:39:12.351Z,70.03
2019-03-29T00:40:48.665Z,84.23
2019-03-29T00:42:24.970Z,82.47
2019-03-29T00:44:01.307Z,85.33
2019-03-29T00:45:37.898Z,97.87
2019-03-29T00:47:14.203Z,110.17
2019-03-29T00:48:50.385Z,110.13
2019-03-29T00:50:26.606Z,98.27
2019-03-29T00:52:02.935Z,95.93
2019-03-29T00:53:39.050Z,91.47
2019-03-29T00:55:15.379Z,86.77
2019-03-29T00:56:51.946Z,80.93
2019-03-29T00:58:28.335Z,82.07
2019-03-29T01:00:08.453Z,77.23
2019-03-29T01:01:44.553Z,85.63
2019-03-29T01:03:20.791Z,89.57
2019-03-29T01:04:56.726Z,79.67
2019-03-29T01:06:32.813Z,82.40
2019-03-29T01:08:10.549Z,84.87
2019-03-29T01:09:47.242Z,77.70
2019-03-29T01:11:23.483Z,81.47
2019-03-29T01:13:00.847Z,77.43
2019-03-29T01:14:38.358Z,80.77
2019-03-29T01:16:14.560Z,75.07
2019-03-29T01:17:50.800Z,74.47
2019-03-29T01:19:27.097Z,72.67
2019-03-29T01:21:03.512Z,80.07
2019-03-29T01:22:39.749Z,78.03
2019-03-29T01:24:16.156Z,79.23
2019-03-29T01:25:52.360Z,88.17
2019-03-29T01:27:28.530Z,75.67
2019-03-29T01:29:04.957Z,81.13
2019-03-29T01:30:41.275Z,76.60
2019-03-29T01:32:17.417Z,81.87
2019-03-29T01:33:53.658Z,79.47
2019-03-29T01:35:29.758Z,74.77
2019-03-29T01:37:07.186Z,74.53
2019-03-29T01:38:43.438Z,71.53
2019-03-29T01:40:19.663Z,70.57
2019-03-29T01:41:55.822Z,63.97
2019-03-29T01:43:32.142Z,69.13
2019-03-29T01:45:09.649Z,65.10
2019-03-29T01:46:45.789Z,61.57
2019-03-29T01:48:22.420Z,55.67
2019-03-29T01:49:58.801Z,49.90
2019-03-29T01:51:35.078Z,46.33
2019-03-29T01:53:11.341Z,54.40
2019-03-29T01:54:48.276Z,42.37
2019-03-29T01:56:43.871Z,50.33
2019-03-29T01:58:19.972Z,44.70
2019-03-29T01:59:56.134Z,53.13
2019-03-29T02:01:32.255Z,50.93
2019-03-29T02:03:08.487Z,53.80
2019-03-29T02:04:44.768Z,48.10
2019-03-29T02:06:21.359Z,48.40
2019-03-29T02:07:57.225Z,53.23
2019-03-29T02:09:33.577Z,55.13
2019-03-29T02:11:09.719Z,49.23
2019-03-29T02:12:45.953Z,53.53
2019-03-29T02:14:22.159Z,49.90
2019-03-29T02:15:58.467Z,50.70
2019-03-29T02:17:34.749Z,50.27
2019-03-29T02:19:12.089Z,49.03
2019-03-29T02:20:48.355Z,55.53
2019-03-29T02:22:24.527Z,52.43
2019-03-29T02:24:00.699Z,54.73
2019-03-29T02:25:36.935Z,51.03
2019-03-29T02:27:13.338Z,58.93
2019-03-29T02:28:49.497Z,52.53
2019-03-29T02:30:25.735Z,51.83
2019-03-29T02:32:01.945Z,50.10
2019-03-29T02:33:38.087Z,54.47
2019-03-29T02:35:14.990Z,47.63
2019-03-29T02:36:51.079Z,53.27
2019-03-29T02:38:27.219Z,51.53
2019-03-29T02:40:03.952Z,50.87
2019-03-29T02:41:40.158Z,48.97
2019-03-29T02:43:17.580Z,49.70
2019-03-29T02:44:53.757Z,49.30
2019-03-29T02:46:29.859Z,54.07
2019-03-29T02:48:07.402Z,47.07
2019-03-29T02:49:43.616Z,49.60
2019-03-29T02:51:19.759Z,50.43
2019-03-29T02:52:55.855Z,49.17
2019-03-29T02:54:32.024Z,48.47
2019-03-29T02:56:08.214Z,54.87
2019-03-29T02:57:44.475Z,56.50
2019-03-29T02:59:20.762Z,51.07
2019-03-29T03:00:56.996Z,52.03
2019-03-29T03:02:33.253Z,48.77
2019-03-29T03:04:09.492Z,50.43
2019-03-29T03:05:45.777Z,56.27
2019-03-29T03:07:22.042Z,49.30
2019-03-29T03:09:12.244Z,49.73
2019-03-29T03:10:36.272Z,57.90
2019-03-29T03:12:12.516Z,57.07
2019-03-29T03:13:48.669Z,54.73
2019-03-29T03:15:24.991Z,72.17
2019-03-29T03:17:01.237Z,66.37
2019-03-29T03:18:37.503Z,59.93
2019-03-29T03:20:16.688Z,58.50
2019-03-29T03:21:52.917Z,54.20
2019-03-29T03:23:29.179Z,48.70
2019-03-29T03:25:07.663Z,61.17
2019-03-29T03:26:43.757Z,55.70
2019-03-29T03:28:19.843Z,45.07
2019-03-29T03:29:55.909Z,54.73
2019-03-29T03:31:32.117Z,52.50
2019-03-29T03:33:08.368Z,48.83
2019-03-29T03:34:44.622Z,53.17
2019-03-29T03:36:20.859Z,58.33
2019-03-29T03:37:56.982Z,53.83
2019-03-29T03:39:33.120Z,56.67
2019-03-29T03:41:09.415Z,60.50
2019-03-29T03:42:45.627Z,66.13
2019-03-29T03:44:21.785Z,53.47
2019-03-29T03:45:57.888Z,63.07
2019-03-29T03:47:34.096Z,61.93
2019-03-29T03:49:10.193Z,63.07
2019-03-29T03:50:47.162Z,56.00
2019-03-29T03:52:23.565Z,57.07
2019-03-29T03:53:59.788Z,80.80
2019-03-29T03:55:39.293Z,93.23
2019-03-29T03:57:15.896Z,79.07
2019-03-29T03:58:52.713Z,75.67
2019-03-29T04:00:53.826Z,69.30
2019-03-29T04:02:29.995Z,78.03
2019-03-29T04:04:06.386Z,92.20
2019-03-29T04:05:42.388Z,97.23
2019-03-29T04:07:18.578Z,102.37
2019-03-29T04:08:55.050Z,130.03
2019-03-29T04:10:31.145Z,136.53
2019-03-29T04:12:07.378Z,158.90
2019-03-29T04:13:43.631Z,159.90
2019-03-29T04:15:19.866Z,162.00
2019-03-29T04:16:56.223Z,150.47
2019-03-29T04:18:32.524Z,125.63
2019-03-29T04:20:09.188Z,155.53
2019-03-29T04:21:45.246Z,127.90
2019-03-29T04:23:21.534Z,139.73
2019-03-29T04:24:58.843Z,179.37
2019-03-29T04:26:35.047Z,200.00
2019-03-29T04:28:11.352Z,227.13
2019-03-29T04:29:47.519Z,204.00
2019-03-29T04:31:23.820Z,236.07
2019-03-29T04:33:00.065Z,267.03
2019-03-29T04:34:36.263Z,237.07
2019-03-29T04:36:12.568Z,224.20
2019-03-29T04:37:48.696Z,207.77
2019-03-29T04:39:24.901Z,251.57
2019-03-29T04:41:01.118Z,256.80
2019-03-29T04:42:37.224Z,196.20
2019-03-29T04:44:13.419Z,244.60
2019-03-29T04:45:49.530Z,250.83
2019-03-29T04:47:25.800Z,247.93
2019-03-29T04:49:02.109Z,139.80
2019-03-29T04:50:38.367Z,212.73
2019-03-29T04:52:14.464Z,224.60
2019-03-29T04:53:50.631Z,211.10
2019-03-29T04:55:26.960Z,214.03
2019-03-29T04:57:03.084Z,219.73
2019-03-29T04:58:39.251Z,183.50
2019-03-29T05:00:15.933Z,206.20
2019-03-29T05:01:52.180Z,160.77
2019-03-29T05:03:28.353Z,186.53
2019-03-29T05:05:06.462Z,176.67
2019-03-29T05:06:42.566Z,181.33
2019-03-29T05:08:18.729Z,220.80
2019-03-29T05:09:55.005Z,225.03
2019-03-29T05:11:31.117Z,222.73
2019-03-29T05:13:07.422Z,208.90
2019-03-29T05:14:43.768Z,233.57
2019-03-29T05:16:19.872Z,198.80
2019-03-29T05:17:55.971Z,217.53
2019-03-29T05:19:32.416Z,213.77
2019-03-29T05:21:08.679Z,204.60
2019-03-29T05:22:44.949Z,163.57
2019-03-29T05:24:21.093Z,484.87
2019-03-29T05:25:57.358Z,294.60
2019-03-29T05:27:33.540Z,211.47
2019-03-29T05:29:09.727Z,212.13
2019-03-29T05:30:45.827Z,187.03
2019-03-29T05:32:21.960Z,200.77
2019-03-29T05:33:58.126Z,221.13
2019-03-29T05:35:34.291Z,224.00
2019-03-29T05:37:10.535Z,216.47
2019-03-29T05:38:46.817Z,213.53
2019-03-29T05:40:34.249Z,217.77
2019-03-29T05:42:01.040Z,244.07
2019-03-29T05:43:37.154Z,269.17
2019-03-29T05:45:13.604Z,243.77
2019-03-29T05:46:49.914Z,189.73
2019-03-29T05:48:26.155Z,161.27
2019-03-29T05:50:02.392Z,149.13
2019-03-29T05:51:38.744Z,142.47
2019-03-29T05:53:14.850Z,156.53
2019-03-29T05:54:51.020Z,140.20
2019-03-29T05:56:27.253Z,137.03
2019-03-29T05:58:03.497Z,135.80
2019-03-29T05:59:39.791Z,122.60
2019-03-29T06:01:17.082Z,133.80
2019-03-29T06:02:53.249Z,125.93
2019-03-29T06:04:29.422Z,138.33
2019-03-29T06:06:05.456Z,132.00
2019-03-29T06:07:42.954Z,139.70
2019-03-29T06:09:19.048Z,122.17
2019-03-29T06:10:55.064Z,112.77
2019-03-29T06:12:31.264Z,107.37
2019-03-29T06:14:07.160Z,123.23
2019-03-29T06:15:43.430Z,128.67
2019-03-29T06:17:19.559Z,108.57
2019-03-29T06:18:55.765Z,118.17
2019-03-29T06:20:32.000Z,104.83
2019-03-29T06:22:08.337Z,133.17
2019-03-29T06:23:44.571Z,112.60
2019-03-29T06:25:20.747Z,105.33
2019-03-29T06:26:56.914Z,119.13
2019-03-29T06:28:33.087Z,108.33
2019-03-29T06:30:10.984Z,101.53
2019-03-29T06:31:47.263Z,89.77
2019-03-29T06:33:23.501Z,80.73
2019-03-29T06:34:59.802Z,85.70
2019-03-29T06:36:36.525Z,76.53
2019-03-29T06:38:14.027Z,76.87
2019-03-29T06:39:52.972Z,76.80
2019-03-29T06:41:29.198Z,80.83
2019-03-29T06:43:05.709Z,75.93
2019-03-29T06:44:44.277Z,73.63
2019-03-29T06:46:19.891Z,78.07
2019-03-29T06:47:56.219Z,71.00
2019-03-29T06:49:32.403Z,72.43
2019-03-29T06:51:08.582Z,76.03
2019-03-29T06:52:44.752Z,70.63
2019-03-29T06:54:20.937Z,76.10
2019-03-29T06:55:59.307Z,70.07
2019-03-29T06:57:35.004Z,68.90
2019-03-29T06:59:10.808Z,74.80
2019-03-29T07:00:47.216Z,75.30
2019-03-29T07:02:23.158Z,71.07
2019-03-29T07:03:59.406Z,68.63
2019-03-29T07:05:35.572Z,71.23
2019-03-29T07:07:11.661Z,67.23
2019-03-29T07:08:47.762Z,68.37
2019-03-29T07:10:24.018Z,71.27
2019-03-29T07:12:00.209Z,67.30
2019-03-29T07:13:36.317Z,69.37
2019-03-29T07:15:12.627Z,70.57
2019-03-29T07:16:48.848Z,63.47
2019-03-29T07:18:25.191Z,63.77
2019-03-29T07:20:02.160Z,60.67
2019-03-29T07:21:38.338Z,65.17
2019-03-29T07:23:14.579Z,61.00
2019-03-29T07:24:50.702Z,64.13
2019-03-29T07:26:26.805Z,70.03
2019-03-29T07:28:03.066Z,68.40
2019-03-29T07:29:39.350Z,61.90
2019-03-29T07:31:15.630Z,67.97
2019-03-29T07:32:51.865Z,68.53
2019-03-29T07:34:28.224Z,64.03
2019-03-29T07:36:04.466Z,64.00
2019-03-29T07:37:40.730Z,59.40
2019-03-29T07:39:16.970Z,56.93
2019-03-29T07:40:52.922Z,60.60
2019-03-29T07:42:48.429Z,57.80
2019-03-29T07:44:24.716Z,62.90
2019-03-29T07:46:01.059Z,61.27
2019-03-29T07:47:37.314Z,65.13
2019-03-29T07:49:13.662Z,62.93
2019-03-29T07:50:50.015Z,66.90
2019-03-29T07:52:26.025Z,63.10
2019-03-29T07:54:02.209Z,59.83
2019-03-29T07:55:38.311Z,59.27
2019-03-29T07:57:14.460Z,55.97
2019-03-29T07:58:50.734Z,55.87
2019-03-29T08:00:26.978Z,48.53
2019-03-29T08:02:03.221Z,43.07
2019-03-29T08:03:39.428Z,36.07
2019-03-29T08:05:15.728Z,34.70
2019-03-29T08:06:52.070Z,33.73
2019-03-29T08:08:32.253Z,38.97
2019-03-29T08:10:07.964Z,33.33
2019-03-29T08:11:46.489Z,30.67
2019-03-29T08:13:22.156Z,34.17
2019-03-29T08:14:58.408Z,35.73
2019-03-29T08:16:34.738Z,32.67
2019-03-29T08:18:11.064Z,31.30
2019-03-29T08:19:47.311Z,33.20
2019-03-29T08:21:24.807Z,32.93
2019-03-29T08:23:01.227Z,43.37
2019-03-29T08:24:37.308Z,33.60
2019-03-29T08:26:13.555Z,36.00
2019-03-29T08:27:49.807Z,46.83
2019-03-29T08:29:26.077Z,38.73
2019-03-29T08:31:02.594Z,34.97
2019-03-29T08:32:38.764Z,30.50
2019-03-29T08:34:16.144Z,32.87
2019-03-29T08:35:52.308Z,31.30
2019-03-29T08:37:28.529Z,32.93
2019-03-29T08:39:10.028Z,31.30
2019-03-29T08:40:45.468Z,31.20
2019-03-29T08:42:21.829Z,29.00
2019-03-29T08:43:57.902Z,26.73
2019-03-29T08:45:34.286Z,28.60
2019-03-29T08:47:10.620Z,26.17
2019-03-29T08:48:48.132Z,29.33
2019-03-29T08:50:24.433Z,29.23
2019-03-29T08:52:00.591Z,31.47
2019-03-29T08:53:36.827Z,29.27
2019-03-29T08:55:13.145Z,29.17
2019-03-29T08:56:49.226Z,29.43
2019-03-29T08:58:25.509Z,28.17
2019-03-29T09:00:01.677Z,28.70
2019-03-29T09:01:37.982Z,29.23
2019-03-29T09:03:14.285Z,30.53
2019-03-29T09:04:50.630Z,29.07
2019-03-29T09:06:29.976Z,32.03
2019-03-29T09:08:04.585Z,34.37
2019-03-29T09:09:40.794Z,32.23
2019-03-29T09:11:16.905Z,28.97
2019-03-29T09:12:53.278Z,27.50
2019-03-29T09:14:31.395Z,29.20
2019-03-29T09:16:07.370Z,25.80
2019-03-29T09:17:43.603Z,26.20
2019-03-29T09:19:19.849Z,24.20
2019-03-29T09:20:56.013Z,25.33
2019-03-29T09:22:32.175Z,24.73
2019-03-29T09:24:21.061Z,23.60
2019-03-29T09:25:46.515Z,20.47
2019-03-29T09:27:22.693Z,21.07
2019-03-29T09:28:59.022Z,22.37
2019-03-29T09:30:35.294Z,22.20
2019-03-29T09:32:11.606Z,19.37
2019-03-29T09:33:47.946Z,19.67
2019-03-29T09:35:24.323Z,18.17
2019-03-29T09:37:04.778Z,18.47
2019-03-29T09:38:43.688Z,18.30
2019-03-29T09:40:20.650Z,19.23
2019-03-29T09:41:56.872Z,14.23
2019-03-29T09:43:33.150Z,12.37
2019-03-29T09:45:09.847Z,13.53
2019-03-29T09:46:46.149Z,15.67
2019-03-29T09:48:22.262Z,21.03
2019-03-29T09:49:58.192Z,16.90
2019-03-29T09:51:36.020Z,22.17
2019-03-29T09:53:12.102Z,16.47
2019-03-29T09:54:48.196Z,16.17
2019-03-29T09:56:37.919Z,16.20
2019-03-29T09:58:02.785Z,21.23
2019-03-29T09:59:39.033Z,14.73
2019-03-29T10:01:15.160Z,15.53
2019-03-29T10:02:51.481Z,13.77
2019-03-29T10:04:28.962Z,15.20
2019-03-29T10:06:05.424Z,14.83
2019-03-29T10:07:41.826Z,16.20
2019-03-29T10:09:18.039Z,20.80
2019-03-29T10:10:54.211Z,13.43
2019-03-29T10:12:42.574Z,12.23
2019-03-29T10:14:08.358Z,14.10
2019-03-29T10:15:44.789Z,14.20
2019-03-29T10:17:20.956Z,15.67
2019-03-29T10:18:57.124Z,16.37
2019-03-29T10:20:33.220Z,17.57
2019-03-29T10:22:09.512Z,16.47
2019-03-29T10:23:45.704Z,15.27
2019-03-29T10:25:22.330Z,14.73
2019-03-29T10:26:58.505Z,16.57
2019-03-29T10:28:34.741Z,14.77
2019-03-29T10:30:11.856Z,16.50
2019-03-29T10:31:48.155Z,16.23
2019-03-29T10:33:24.442Z,22.10
2019-03-29T10:35:00.676Z,16.47
2019-03-29T10:36:36.845Z,16.27
2019-03-29T10:38:13.051Z,18.57
2019-03-29T10:39:49.364Z,15.17
2019-03-29T10:41:25.808Z,16.53
2019-03-29T10:43:01.909Z,15.40
2019-03-29T10:44:38.145Z,15.03
2019-03-29T10:46:14.306Z,14.50
2019-03-29T10:47:50.493Z,14.13
2019-03-29T10:49:26.640Z,17.67
2019-03-29T10:51:02.995Z,16.87
2019-03-29T10:52:39.106Z,18.87
2019-03-29T10:54:15.339Z,16.90
2019-03-29T10:55:51.536Z,15.93
2019-03-29T10:57:27.612Z,19.77
2019-03-29T10:59:04.034Z,15.57
2019-03-29T11:00:41.614Z,17.07
2019-03-29T11:02:17.845Z,14.30
2019-03-29T11:03:54.079Z,13.87
2019-03-29T11:05:30.173Z,14.70
2019-03-29T11:07:06.504Z,14.83
2019-03-29T11:08:43.715Z,15.50
2019-03-29T11:10:36.388Z,18.30
2019-03-29T11:12:12.687Z,16.33
2019-03-29T11:13:49.069Z,15.53
2019-03-29T11:15:25.331Z,17.03
2019-03-29T11:17:01.204Z,17.00
2019-03-29T11:18:37.340Z,18.97
2019-03-29T11:20:13.611Z,16.57
2019-03-29T11:21:49.782Z,14.97
2019-03-29T11:23:26.020Z,19.33
2019-03-29T11:25:02.253Z,16.33
2019-03-29T11:26:38.585Z,16.07
2019-03-29T11:28:14.822Z,16.80
2019-03-29T11:29:52.020Z,17.43
2019-03-29T11:31:28.391Z,15.97
2019-03-29T11:33:05.328Z,18.50
2019-03-29T11:34:41.415Z,16.23
2019-03-29T11:36:17.721Z,15.37
2019-03-29T11:37:53.952Z,16.77
2019-03-29T11:39:30.608Z,18.50
2019-03-29T11:41:06.870Z,16.93
2019-03-29T11:42:43.038Z,17.47
2019-03-29T11:44:19.341Z,16.87
2019-03-29T11:45:56.852Z,18.17
2019-03-29T11:47:33.084Z,15.33
2019-03-29T11:49:09.265Z,17.43
2019-03-29T11:50:45.462Z,16.77
2019-03-29T11:52:21.600Z,15.10
2019-03-29T11:53:57.767Z,15.97
2019-03-29T11:55:34.012Z,18.20
2019-03-29T11:57:10.436Z,16.57
2019-03-29T11:58:46.603Z,16.40
2019-03-29T12:00:37.263Z,18.13
2019-03-29T12:02:13.457Z,20.37
2019-03-29T12:03:50.007Z,16.37
2019-03-29T12:05:26.180Z,22.90
2019-03-29T12:07:03.697Z,18.30
2019-03-29T12:08:39.984Z,18.80
2019-03-29T12:10:16.286Z,16.40
2019-03-29T12:11:52.461Z,18.03
2019-03-29T12:13:40.508Z,18.07
2019-03-29T12:15:09.057Z,17.33
2019-03-29T12:16:45.399Z,16.83
2019-03-29T12:18:21.918Z,16.30
2019-03-29T12:19:58.365Z,15.23
2019-03-29T12:21:34.524Z,18.70
2019-03-29T12:23:11.055Z,15.07
2019-03-29T12:24:47.662Z,16.13
2019-03-29T12:26:23.885Z,17.10
2019-03-29T12:28:00.039Z,17.93
2019-03-29T12:29:36.316Z,19.23
2019-03-29T12:31:13.141Z,18.07
2019-03-29T12:32:49.396Z,18.23
2019-03-29T12:34:25.738Z,16.80
2019-03-29T12:36:01.833Z,16.33
2019-03-29T12:37:38.074Z,18.90
2019-03-29T12:39:16.845Z,15.00
2019-03-29T12:40:53.384Z,17.77
2019-03-29T12:42:29.745Z,16.83
2019-03-29T12:44:06.144Z,17.10
2019-03-29T12:45:42.407Z,15.13
2019-03-29T12:47:18.593Z,18.47
2019-03-29T12:48:55.005Z,15.40
2019-03-29T12:50:31.173Z,16.07
2019-03-29T12:52:07.481Z,18.40
2019-03-29T12:53:43.932Z,17.87
2019-03-29T12:55:20.837Z,18.73
2019-03-29T12:56:57.179Z,17.50
2019-03-29T12:58:33.446Z,16.67
2019-03-29T13:00:11.567Z,16.33
2019-03-29T13:01:47.867Z,19.80
2019-03-29T13:03:25.668Z,16.23
2019-03-29T13:05:03.418Z,20.57
2019-03-29T13:06:39.590Z,22.40
2019-03-29T13:08:15.927Z,17.53
2019-03-29T13:09:52.104Z,15.73
2019-03-29T13:11:28.368Z,17.57
2019-03-29T13:13:04.681Z,27.40
2019-03-29T13:14:40.851Z,16.77
2019-03-29T13:16:18.261Z,18.67
2019-03-29T13:17:54.617Z,15.80
2019-03-29T13:19:30.939Z,16.80
2019-03-29T13:21:07.038Z,20.03
2019-03-29T13:22:43.222Z,18.87
2019-03-29T13:24:19.457Z,16.07
2019-03-29T13:25:56.832Z,18.23
2019-03-29T13:27:33.186Z,17.67
2019-03-29T13:29:09.380Z,18.07
2019-03-29T13:30:45.626Z,23.17
2019-03-29T13:32:21.942Z,17.20
2019-03-29T13:33:58.244Z,17.93
2019-03-29T13:35:34.671Z,16.77
2019-03-29T13:37:10.769Z,18.43
2019-03-29T13:38:47.051Z,18.40
2019-03-29T13:40:23.493Z,19.50
2019-03-29T13:41:59.667Z,17.23
2019-03-29T13:43:35.984Z,18.10
2019-03-29T13:45:12.822Z,18.20
2019-03-29T13:46:48.925Z,17.03
2019-03-29T13:48:25.106Z,18.87
2019-03-29T13:50:01.953Z,21.27
2019-03-29T13:51:38.562Z,23.27
2019-03-29T13:53:14.508Z,22.37
2019-03-29T13:54:50.725Z,18.50
2019-03-29T13:56:26.588Z,20.77
2019-03-29T13:58:02.899Z,18.80
2019-03-29T13:59:39.071Z,16.43
2019-03-29T14:01:15.221Z,19.70
2019-03-29T14:02:51.452Z,17.37
2019-03-29T14:04:27.657Z,19.07
2019-03-29T14:06:04.007Z,17.23
2019-03-29T14:07:41.391Z,20.43
2019-03-29T14:09:17.637Z,18.63
2019-03-29T14:10:54.126Z,19.00
2019-03-29T14:12:30.429Z,17.00
2019-03-29T14:14:06.933Z,18.00
2019-03-29T14:15:43.108Z,18.57
2019-03-29T14:17:19.278Z,17.37
2019-03-29T14:18:55.602Z,18.63
2019-03-29T14:20:34.415Z,17.33
2019-03-29T14:22:10.660Z,18.40
2019-03-29T14:23:46.917Z,17.73
2019-03-29T14:25:23.016Z,17.10
2019-03-29T14:26:59.460Z,20.73
2019-03-29T14:28:35.560Z,19.37
2019-03-29T14:30:12.373Z,18.07
2019-03-29T14:31:48.411Z,19.67
2019-03-29T14:33:24.597Z,20.13
2019-03-29T14:35:02.289Z,20.07
2019-03-29T14:36:38.642Z,20.37
2019-03-29T14:38:14.784Z,18.07
2019-03-29T14:39:50.954Z,21.07
2019-03-29T14:41:27.140Z,24.13
2019-03-29T14:43:04.571Z,25.03
2019-03-29T14:44:51.659Z,22.03
2019-03-29T14:46:18.583Z,20.03
2019-03-29T14:47:54.770Z,20.43
2019-03-29T14:49:31.120Z,19.47
2019-03-29T14:51:07.385Z,19.10
2019-03-29T14:52:43.848Z,29.50
2019-03-29T14:54:19.973Z,32.43
2019-03-29T14:55:56.195Z,31.07
2019-03-29T14:57:32.468Z,27.07
2019-03-29T14:59:08.737Z,27.03
2019-03-29T15:00:48.594Z,28.93
2019-03-29T15:02:23.913Z,29.37
2019-03-29T15:04:00.183Z,32.60
2019-03-29T15:05:36.591Z,28.47
2019-03-29T15:07:12.911Z,32.00
2019-03-29T15:08:51.331Z,33.97
2019-03-29T15:10:29.672Z,29.27
2019-03-29T15:12:07.053Z,31.03
2019-03-29T15:13:43.575Z,29.17
2019-03-29T15:15:19.881Z,37.73
2019-03-29T15:16:56.078Z,28.67
2019-03-29T15:18:32.179Z,30.27
2019-03-29T15:20:09.051Z,32.80
2019-03-29T15:21:45.122Z,42.23
2019-03-29T15:23:21.524Z,49.77
2019-03-29T15:24:57.781Z,51.40
2019-03-29T15:26:34.025Z,53.97
2019-03-29T15:28:10.264Z,46.00
2019-03-29T15:29:46.611Z,49.93
2019-03-29T15:31:24.002Z,43.03
2019-03-29T15:33:00.244Z,41.13
2019-03-29T15:34:36.352Z,54.07
2019-03-29T15:36:12.688Z,35.90
2019-03-29T15:37:48.903Z,30.60
2019-03-29T15:39:25.219Z,40.23
2019-03-29T15:41:01.399Z,36.40
2019-03-29T15:42:37.702Z,37.03
2019-03-29T15:44:14.011Z,34.37
2019-03-29T15:45:50.283Z,31.37
2019-03-29T15:47:27.719Z,27.97
2019-03-29T15:49:03.961Z,30.00
2019-03-29T15:50:40.200Z,31.03
2019-03-29T15:52:16.441Z,28.60
2019-03-29T15:53:52.809Z,25.87
2019-03-29T15:55:28.994Z,28.53
2019-03-29T15:57:05.242Z,29.23
2019-03-29T15:58:42.536Z,30.10
2019-03-29T16:00:18.917Z,30.37
2019-03-29T16:01:55.120Z,28.90
2019-03-29T16:03:31.250Z,32.13
2019-03-29T16:05:07.980Z,31.63
2019-03-29T16:06:44.216Z,31.93
2019-03-29T16:08:20.544Z,35.20
2019-03-29T16:09:56.749Z,36.37
2019-03-29T16:11:32.989Z,36.83
2019-03-29T16:13:09.092Z,36.63
2019-03-29T16:14:45.263Z,41.23
2019-03-29T16:16:21.550Z,46.57
2019-03-29T16:17:57.772Z,41.83
2019-03-29T16:19:34.041Z,33.80
2019-03-29T16:21:11.489Z,32.43
2019-03-29T16:22:48.469Z,35.70
2019-03-29T16:24:24.704Z,33.53
2019-03-29T16:26:00.914Z,33.97
2019-03-29T16:27:37.180Z,34.50
2019-03-29T16:29:13.052Z,35.97
2019-03-29T16:30:49.373Z,43.50
2019-03-29T16:32:25.644Z,39.10
2019-03-29T16:34:01.985Z,34.70
2019-03-29T16:35:38.225Z,39.33
2019-03-29T16:37:14.334Z,40.13
2019-03-29T16:38:50.431Z,34.83
2019-03-29T16:40:26.731Z,35.27
2019-03-29T16:42:02.960Z,42.60
2019-03-29T16:43:39.307Z,35.80
2019-03-29T16:45:15.703Z,39.13
2019-03-29T16:46:51.538Z,41.80
2019-03-29T16:48:28.964Z,47.47
2019-03-29T16:50:10.546Z,54.57
2019-03-29T16:51:46.849Z,48.77
2019-03-29T16:53:23.172Z,50.20
2019-03-29T16:55:12.505Z,46.77
2019-03-29T16:56:37.564Z,53.57
2019-03-29T16:58:13.872Z,54.77
2019-03-29T16:59:50.127Z,56.47
2019-03-29T17:01:26.319Z,50.93
2019-03-29T17:03:02.581Z,54.43
2019-03-29T17:04:38.912Z,52.33
2019-03-29T17:06:15.064Z,50.80
2019-03-29T17:07:51.291Z,49.23
2019-03-29T17:09:27.596Z,48.97
2019-03-29T17:11:03.893Z,44.17
2019-03-29T17:12:40.047Z,44.37
2019-03-29T17:14:16.291Z,44.83
2019-03-29T17:16:01.535Z,48.93
2019-03-29T17:17:30.179Z,43.70
2019-03-29T17:19:06.442Z,48.20
2019-03-29T17:20:42.677Z,47.07
2019-03-29T17:22:18.824Z,49.00
2019-03-29T17:23:54.993Z,44.47
2019-03-29T17:25:31.226Z,49.20
2019-03-29T17:27:07.561Z,49.27
2019-03-29T17:28:43.742Z,45.27
2019-03-29T17:30:24.485Z,45.87
2019-03-29T17:32:00.331Z,47.03
2019-03-29T17:33:36.469Z,48.90
2019-03-29T17:35:12.694Z,51.87
2019-03-29T17:36:48.923Z,49.90
2019-03-29T17:38:25.267Z,48.53
2019-03-29T17:40:01.352Z,50.20
2019-03-29T17:41:37.511Z,53.07
2019-03-29T17:43:13.814Z,51.83
2019-03-29T17:44:52.263Z,57.63
2019-03-29T17:46:47.676Z,57.13
2019-03-29T17:48:23.944Z,54.40
2019-03-29T17:50:00.402Z,58.40
2019-03-29T17:51:36.799Z,62.40
2019-03-29T17:53:13.115Z,58.03
2019-03-29T17:54:49.416Z,59.23
2019-03-29T17:56:25.734Z,56.83
2019-03-29T17:58:01.956Z,56.13
2019-03-29T17:59:38.188Z,59.27
2019-03-29T18:01:14.416Z,51.83
2019-03-29T18:02:50.679Z,44.20
2019-03-29T18:04:26.890Z,44.30
2019-03-29T18:06:03.051Z,44.77
2019-03-29T18:07:39.361Z,47.50
2019-03-29T18:09:15.510Z,51.23
2019-03-29T18:10:51.767Z,57.60
2019-03-29T18:12:27.934Z,55.77
2019-03-29T18:14:04.330Z,58.83
2019-03-29T18:15:40.658Z,54.90
2019-03-29T18:17:17.009Z,60.13
2019-03-29T18:18:53.235Z,69.30
2019-03-29T18:20:29.463Z,60.33
2019-03-29T18:22:05.777Z,61.43
2019-03-29T18:23:41.934Z,72.80
2019-03-29T18:25:18.378Z,81.20
2019-03-29T18:26:54.535Z,81.00
2019-03-29T18:28:30.699Z,83.20
2019-03-29T18:30:10.867Z,76.27
2019-03-29T18:31:47.268Z,76.40
2019-03-29T18:33:25.071Z,86.60
2019-03-29T18:35:01.278Z,78.97
2019-03-29T18:36:39.075Z,75.27
2019-03-29T18:38:15.270Z,73.27
2019-03-29T18:39:54.849Z,79.23
2019-03-29T18:41:29.808Z,65.70
2019-03-29T18:43:06.828Z,59.53
2019-03-29T18:44:43.112Z,56.67
2019-03-29T18:46:19.345Z,53.73
2019-03-29T18:47:55.649Z,49.93
2019-03-29T18:49:31.952Z,51.83
2019-03-29T18:51:08.214Z,62.53
2019-03-29T18:52:44.456Z,64.93
2019-03-29T18:54:20.576Z,67.73
2019-03-29T18:55:56.783Z,59.57
2019-03-29T18:57:33.017Z,71.30
2019-03-29T18:59:09.237Z,67.73
2019-03-29T19:00:45.412Z,53.70
2019-03-29T19:02:21.570Z,57.33
2019-03-29T19:03:59.002Z,57.90
2019-03-29T19:05:35.505Z,64.73
2019-03-29T19:07:11.671Z,69.53
2019-03-29T19:08:48.122Z,58.80
2019-03-29T19:10:24.624Z,56.00
2019-03-29T19:12:00.960Z,56.97
2019-03-29T19:13:38.306Z,59.87
2019-03-29T19:15:14.539Z,63.37
2019-03-29T19:16:58.763Z,57.33
2019-03-29T19:18:28.559Z,57.00
2019-03-29T19:20:10.650Z,54.77
2019-03-29T19:21:44.431Z,55.90
2019-03-29T19:23:20.595Z,53.63
2019-03-29T19:24:56.704Z,54.87
2019-03-29T19:26:32.864Z,59.87
2019-03-29T19:28:10.143Z,56.33
2019-03-29T19:29:46.297Z,65.87
2019-03-29T19:31:22.649Z,66.93
2019-03-29T19:32:58.853Z,71.30
2019-03-29T19:34:35.017Z,69.00
2019-03-29T19:36:11.477Z,87.57
2019-03-29T19:37:47.798Z,85.93
2019-03-29T19:39:25.077Z,99.40
2019-03-29T19:41:01.428Z,94.50
2019-03-29T19:42:37.730Z,109.80
2019-03-29T19:44:14.031Z,113.83
2019-03-29T19:45:50.245Z,126.27
2019-03-29T19:47:26.462Z,117.27
2019-03-29T19:49:02.815Z,109.93
2019-03-29T19:50:38.995Z,104.97
2019-03-29T19:52:15.149Z,109.27
2019-03-29T19:53:51.315Z,97.43
2019-03-29T19:55:27.675Z,90.67
2019-03-29T19:57:03.817Z,78.07
2019-03-29T19:58:40.021Z,77.40
2019-03-29T20:00:17.526Z,82.43
2019-03-29T20:01:53.807Z,75.83
2019-03-29T20:03:30.043Z,75.33
2019-03-29T20:05:10.751Z,73.50
2019-03-29T20:06:49.041Z,73.53
2019-03-29T20:08:25.384Z,66.70
2019-03-29T20:10:01.704Z,70.40
2019-03-29T20:11:38.244Z,76.17
2019-03-29T20:13:14.576Z,88.03
2019-03-29T20:14:50.819Z,85.23
2019-03-29T20:16:27.120Z,89.10
2019-03-29T20:18:03.357Z,93.47
2019-03-29T20:19:39.604Z,86.97
2019-03-29T20:21:15.906Z,71.33
2019-03-29T20:22:53.806Z,70.23
2019-03-29T20:24:29.972Z,65.80
2019-03-29T20:26:08.267Z,60.30
2019-03-29T20:27:44.081Z,62.90
2019-03-29T20:29:20.321Z,63.03
2019-03-29T20:30:56.565Z,57.30
2019-03-29T20:32:32.885Z,52.57
2019-03-29T20:34:08.884Z,52.67
2019-03-29T20:35:45.315Z,45.60
2019-03-29T20:37:21.490Z,46.00
2019-03-29T20:38:57.755Z,51.93